createdAt,value
2018-09-18T00:01:10.781Z,15.40
2018-09-18T00:03:39.393Z,15.40
2018-09-18T00:06:08.003Z,15.40
2018-09-18T00:08:36.657Z,15.40
2018-09-18T00:11:05.231Z,15.40
2018-09-18T00:13:33.790Z,15.30
2018-09-18T00:16:02.564Z,15.30
2018-09-18T00:18:31.308Z,15.30
2018-09-18T00:20:59.891Z,15.30
2018-09-18T00:23:35.126Z,15.30
2018-09-18T00:26:03.728Z,15.30
2018-09-18T00:28:32.322Z,15.40
2018-09-18T00:31:00.968Z,15.40
2018-09-18T00:33:29.643Z,15.40
2018-09-18T00:35:58.314Z,15.30
2018-09-18T00:38:26.934Z,15.40
2018-09-18T00:40:55.496Z,15.40
2018-09-18T00:43:24.059Z,15.40
2018-09-18T00:45:52.808Z,15.30
2018-09-18T00:48:21.376Z,15.40
2018-09-18T00:50:49.961Z,15.30
2018-09-18T00:53:18.585Z,15.30
2018-09-18T00:55:47.391Z,15.30
2018-09-18T00:58:15.982Z,15.30
2018-09-18T01:00:44.577Z,15.30
2018-09-18T01:03:13.206Z,15.30
2018-09-18T01:05:41.817Z,15.30
2018-09-18T01:08:10.498Z,15.30
2018-09-18T01:10:39.121Z,15.20
2018-09-18T01:13:07.687Z,15.20
2018-09-18T01:15:36.385Z,15.20
2018-09-18T01:18:05.034Z,15.20
2018-09-18T01:20:33.638Z,15.20
2018-09-18T01:23:02.223Z,15.30
2018-09-18T01:25:30.789Z,15.30
2018-09-18T01:27:59.402Z,15.30
2018-09-18T01:30:28.010Z,15.30
2018-09-18T01:32:56.583Z,15.30
2018-09-18T01:35:25.151Z,15.30
2018-09-18T01:37:53.781Z,15.30
2018-09-18T01:40:22.414Z,15.30
2018-09-18T01:42:50.987Z,15.30
2018-09-18T01:45:19.581Z,15.30
2018-09-18T01:47:48.160Z,15.30
2018-09-18T01:50:16.776Z,15.30
2018-09-18T01:52:45.410Z,15.30
2018-09-18T01:55:13.991Z,15.30
2018-09-18T01:57:42.555Z,15.20
2018-09-18T02:00:11.226Z,15.20
2018-09-18T02:02:39.782Z,15.30
2018-09-18T02:05:08.422Z,15.30
2018-09-18T02:07:37.045Z,15.30
2018-09-18T02:10:06.453Z,15.30
2018-09-18T02:12:35.073Z,15.30
2018-09-18T02:15:03.726Z,15.30
2018-09-18T02:17:32.291Z,15.30
2018-09-18T02:20:00.838Z,15.20
2018-09-18T02:22:29.454Z,15.20
2018-09-18T02:24:58.043Z,15.20
2018-09-18T02:27:26.628Z,15.10
2018-09-18T02:29:55.255Z,15.10
2018-09-18T02:32:23.849Z,15.10
2018-09-18T02:34:52.450Z,15.10
2018-09-18T02:37:21.090Z,15.00
2018-09-18T02:39:49.684Z,15.00
2018-09-18T02:42:18.962Z,15.00
2018-09-18T02:44:47.584Z,14.90
2018-09-18T02:47:16.169Z,14.90
2018-09-18T02:49:44.764Z,14.90
2018-09-18T02:52:13.355Z,14.90
2018-09-18T02:54:47.454Z,14.90
2018-09-18T02:57:16.079Z,14.90
2018-09-18T02:59:44.652Z,14.80
2018-09-18T03:02:13.225Z,14.80
2018-09-18T03:04:41.819Z,14.80
2018-09-18T03:07:10.461Z,14.80
2018-09-18T03:09:39.018Z,14.80
2018-09-18T03:12:07.697Z,14.90
2018-09-18T03:14:36.410Z,14.80
2018-09-18T03:17:05.036Z,14.80
2018-09-18T03:19:33.739Z,14.80
2018-09-18T03:22:02.302Z,14.80
2018-09-18T03:24:30.923Z,14.80
2018-09-18T03:27:00.203Z,14.80
2018-09-18T03:29:28.793Z,14.80
2018-09-18T03:31:57.401Z,14.70
2018-09-18T03:34:26.009Z,14.70
2018-09-18T03:36:54.601Z,14.70
2018-09-18T03:39:23.182Z,14.70
2018-09-18T03:41:51.795Z,14.60
2018-09-18T03:44:20.380Z,14.70
2018-09-18T03:46:48.970Z,14.60
2018-09-18T03:49:17.685Z,14.60
2018-09-18T03:51:46.238Z,14.60
2018-09-18T03:54:14.990Z,14.60
2018-09-18T03:56:43.620Z,14.60
2018-09-18T03:59:12.330Z,14.60
2018-09-18T04:01:40.905Z,14.50
2018-09-18T04:04:09.615Z,14.50
2018-09-18T04:06:41.227Z,14.50
2018-09-18T04:09:11.255Z,14.50
2018-09-18T04:11:40.160Z,14.50
2018-09-18T04:14:08.822Z,14.40
2018-09-18T04:16:37.455Z,14.40
2018-09-18T04:19:06.051Z,14.50
2018-09-18T04:21:43.123Z,14.40
2018-09-18T04:24:11.700Z,14.40
2018-09-18T04:26:41.312Z,14.40
2018-09-18T04:29:10.625Z,14.40
2018-09-18T04:31:40.713Z,14.50
2018-09-18T04:34:09.434Z,14.50
2018-09-18T04:36:38.040Z,14.50
2018-09-18T04:39:10.346Z,14.50
2018-09-18T04:41:38.947Z,14.50
2018-09-18T04:44:08.300Z,14.50
2018-09-18T04:46:36.868Z,14.50
2018-09-18T04:49:05.471Z,14.50
2018-09-18T04:51:34.094Z,14.50
2018-09-18T04:54:02.714Z,14.50
2018-09-18T04:56:31.346Z,14.50
2018-09-18T04:59:00.159Z,14.50
2018-09-18T05:01:28.741Z,14.50
2018-09-18T05:03:57.374Z,14.50
2018-09-18T05:06:25.927Z,14.50
2018-09-18T05:08:54.500Z,14.50
2018-09-18T05:11:23.133Z,14.50
2018-09-18T05:13:51.779Z,14.50
2018-09-18T05:16:20.316Z,14.50
2018-09-18T05:18:48.932Z,14.50
2018-09-18T05:21:17.572Z,14.50
2018-09-18T05:23:46.147Z,14.50
2018-09-18T05:26:14.940Z,14.50
2018-09-18T05:28:43.561Z,14.50
2018-09-18T05:31:12.165Z,14.50
2018-09-18T05:33:40.818Z,14.50
2018-09-18T05:36:09.431Z,14.50
2018-09-18T05:38:38.028Z,14.50
2018-09-18T05:41:06.665Z,14.50
2018-09-18T05:43:35.296Z,14.50
2018-09-18T05:46:03.871Z,14.50
2018-09-18T05:48:34.108Z,14.60
2018-09-18T05:51:03.060Z,14.60
2018-09-18T05:53:31.657Z,14.60
2018-09-18T05:56:00.294Z,14.60
2018-09-18T05:58:29.409Z,14.70
2018-09-18T06:00:58.011Z,14.80
2018-09-18T06:03:26.650Z,14.80
2018-09-18T06:05:55.233Z,14.90
2018-09-18T06:08:23.840Z,14.90
2018-09-18T06:10:52.434Z,14.90
2018-09-18T06:13:21.038Z,15.00
2018-09-18T06:15:49.652Z,15.00
2018-09-18T06:18:18.756Z,15.00
2018-09-18T06:20:47.366Z,15.10
2018-09-18T06:23:15.938Z,15.10
2018-09-18T06:25:44.597Z,15.20
2018-09-18T06:28:13.269Z,15.20
2018-09-18T06:30:41.863Z,15.20
2018-09-18T06:33:10.567Z,15.20
2018-09-18T06:35:39.133Z,15.30
2018-09-18T06:38:07.784Z,15.30
2018-09-18T06:40:36.382Z,15.40
2018-09-18T06:43:05.054Z,15.40
2018-09-18T06:45:33.634Z,15.40
2018-09-18T06:48:02.272Z,15.50
2018-09-18T06:50:30.850Z,15.60
2018-09-18T06:53:00.245Z,15.60
2018-09-18T06:55:28.878Z,15.70
2018-09-18T06:57:57.473Z,15.70
2018-09-18T07:00:26.094Z,15.80
2018-09-18T07:02:55.168Z,15.90
2018-09-18T07:05:23.773Z,16.00
2018-09-18T07:07:52.391Z,16.00
2018-09-18T07:10:21.049Z,16.10
2018-09-18T07:12:49.685Z,16.10
2018-09-18T07:15:18.350Z,16.20
2018-09-18T07:17:46.961Z,16.30
2018-09-18T07:20:15.626Z,16.40
2018-09-18T07:22:44.196Z,16.50
2018-09-18T07:25:12.893Z,16.50
2018-09-18T07:27:41.549Z,16.60
2018-09-18T07:30:10.345Z,16.70
2018-09-18T07:32:38.957Z,16.80
2018-09-18T07:35:07.581Z,16.90
2018-09-18T07:37:36.179Z,17.00
2018-09-18T07:40:04.828Z,17.10
2018-09-18T07:42:33.429Z,17.20
2018-09-18T07:45:02.014Z,17.40
2018-09-18T07:47:30.664Z,17.50
2018-09-18T07:49:59.249Z,17.60
2018-09-18T07:52:27.894Z,17.70
2018-09-18T07:54:56.478Z,17.80
2018-09-18T07:57:25.078Z,17.90
2018-09-18T07:59:53.698Z,18.00
2018-09-18T08:02:22.936Z,18.10
2018-09-18T08:04:51.514Z,18.20
2018-09-18T08:07:20.134Z,18.30
2018-09-18T08:09:48.752Z,18.30
2018-09-18T08:12:17.675Z,18.40
2018-09-18T08:14:46.304Z,18.50
2018-09-18T08:17:14.901Z,18.60
2018-09-18T08:19:43.738Z,18.60
2018-09-18T08:22:12.148Z,18.70
2018-09-18T08:24:40.774Z,18.80
2018-09-18T08:27:09.353Z,18.90
2018-09-18T08:29:37.925Z,19.00
2018-09-18T08:32:06.619Z,19.10
2018-09-18T08:34:35.197Z,19.10
2018-09-18T08:37:03.827Z,19.30
2018-09-18T08:39:32.517Z,19.30
2018-09-18T08:42:01.190Z,19.40
2018-09-18T08:44:29.815Z,19.50
2018-09-18T08:46:58.407Z,19.60
2018-09-18T08:49:27.044Z,19.70
2018-09-18T08:51:55.660Z,19.80
2018-09-18T08:54:24.255Z,19.90
2018-09-18T08:56:52.821Z,20.10
2018-09-18T08:59:21.430Z,20.10
2018-09-18T09:01:50.112Z,20.30
2018-09-18T09:04:18.710Z,20.60
2018-09-18T09:06:47.324Z,20.80
2018-09-18T09:09:16.061Z,20.90
2018-09-18T09:11:45.515Z,21.00
2018-09-18T09:14:14.378Z,21.10
2018-09-18T09:16:43.088Z,21.20
2018-09-18T09:19:11.836Z,21.40
2018-09-18T09:21:40.477Z,21.50
2018-09-18T09:24:09.128Z,21.60
2018-09-18T09:26:37.851Z,21.70
2018-09-18T09:29:06.477Z,21.80
2018-09-18T09:31:35.154Z,21.90
2018-09-18T09:34:03.758Z,22.00
2018-09-18T09:36:32.351Z,22.00
2018-09-18T09:39:01.003Z,22.10
2018-09-18T09:41:29.582Z,22.20
2018-09-18T09:43:58.170Z,22.20
2018-09-18T09:46:26.805Z,22.30
2018-09-18T09:48:55.983Z,22.40
2018-09-18T09:51:25.733Z,22.60
2018-09-18T09:53:54.327Z,22.70
2018-09-18T09:56:22.931Z,22.80
2018-09-18T09:58:51.559Z,22.90
2018-09-18T10:03:27.941Z,23.00
2018-09-18T10:05:56.520Z,23.10
2018-09-18T10:08:25.204Z,23.30
2018-09-18T10:10:53.924Z,23.40
2018-09-18T10:13:22.614Z,23.50
2018-09-18T10:15:51.215Z,23.50
2018-09-18T10:18:19.984Z,23.60
2018-09-18T10:20:48.542Z,23.70
2018-09-18T10:23:17.205Z,23.90
2018-09-18T10:25:45.892Z,24.00
2018-09-18T10:28:14.609Z,24.00
2018-09-18T10:30:43.234Z,24.10
2018-09-18T10:33:11.962Z,24.20
2018-09-18T10:35:40.642Z,24.30
2018-09-18T10:38:09.271Z,24.40
2018-09-18T10:40:37.933Z,24.40
2018-09-18T10:43:06.679Z,24.50
2018-09-18T10:45:35.291Z,24.60
2018-09-18T10:48:03.993Z,24.70
2018-09-18T10:50:32.599Z,24.70
2018-09-18T10:53:01.204Z,24.80
2018-09-18T10:55:30.076Z,24.90
2018-09-18T10:57:59.477Z,24.90
2018-09-18T11:00:28.099Z,25.00
2018-09-18T11:02:56.705Z,25.10
2018-09-18T11:05:25.279Z,25.20
2018-09-18T11:07:53.973Z,25.30
2018-09-18T11:10:22.630Z,25.30
2018-09-18T11:12:51.158Z,25.40
2018-09-18T11:15:19.825Z,25.60
2018-09-18T11:17:49.062Z,25.60
2018-09-18T11:20:17.710Z,25.60
2018-09-18T11:22:46.291Z,25.60
2018-09-18T11:25:14.934Z,25.60
2018-09-18T11:27:43.591Z,25.70
2018-09-18T11:30:12.183Z,25.80
2018-09-18T11:32:40.811Z,26.00
2018-09-18T11:35:09.469Z,26.00
2018-09-18T11:37:38.057Z,26.10
2018-09-18T11:40:06.690Z,26.20
2018-09-18T11:42:35.278Z,26.20
2018-09-18T11:45:03.975Z,26.20
2018-09-18T11:47:32.599Z,26.30
2018-09-18T11:50:01.191Z,26.40
2018-09-18T11:52:29.811Z,26.50
2018-09-18T11:54:58.485Z,26.60
2018-09-18T11:57:27.195Z,26.70
2018-09-18T11:59:55.799Z,26.70
2018-09-18T12:02:24.522Z,26.70
2018-09-18T12:04:53.296Z,26.80
2018-09-18T12:07:21.913Z,27.00
2018-09-18T12:09:50.559Z,27.10
2018-09-18T12:12:19.236Z,27.20
2018-09-18T12:14:47.835Z,27.30
2018-09-18T12:17:16.995Z,27.50
2018-09-18T12:19:45.626Z,27.60
2018-09-18T12:22:14.323Z,27.70
2018-09-18T12:24:42.956Z,27.90
2018-09-18T12:27:11.649Z,28.50
2018-09-18T12:29:40.576Z,30.80
2018-09-18T12:32:09.413Z,33.80
2018-09-18T12:34:38.329Z,36.10
2018-09-18T12:37:06.985Z,37.90
2018-09-18T12:39:35.637Z,39.10
2018-09-18T12:42:04.423Z,39.90
2018-09-18T12:44:32.897Z,40.80
2018-09-18T12:47:01.546Z,41.90
2018-09-18T12:49:30.336Z,43.20
2018-09-18T12:51:58.808Z,44.40
2018-09-18T12:54:27.540Z,45.00
2018-09-18T12:56:56.212Z,45.60
2018-09-18T12:59:25.068Z,46.30
2018-09-18T13:01:53.728Z,46.80
2018-09-18T13:04:22.334Z,47.10
2018-09-18T13:06:51.045Z,47.10
2018-09-18T13:09:19.649Z,47.40
2018-09-18T13:11:48.266Z,47.60
2018-09-18T13:14:16.884Z,47.70
2018-09-18T13:16:45.504Z,47.70
2018-09-18T13:19:14.089Z,47.80
2018-09-18T13:21:42.718Z,48.10
2018-09-18T13:24:11.415Z,48.10
2018-09-18T13:26:40.350Z,47.80
2018-09-18T13:29:08.999Z,48.00
2018-09-18T13:31:37.666Z,48.30
2018-09-18T13:34:06.316Z,48.80
2018-09-18T13:36:34.974Z,49.30
2018-09-18T13:39:03.901Z,49.20
2018-09-18T13:41:32.585Z,49.20
2018-09-18T13:44:01.225Z,48.90
2018-09-18T13:46:29.969Z,49.00
2018-09-18T13:48:58.543Z,49.20
2018-09-18T13:51:27.204Z,49.70
2018-09-18T13:53:55.883Z,50.00
2018-09-18T13:56:24.685Z,50.00
2018-09-18T13:58:53.329Z,49.40
2018-09-18T14:01:22.074Z,49.20
2018-09-18T14:03:50.684Z,49.20
2018-09-18T14:06:19.387Z,49.20
2018-09-18T14:08:48.077Z,49.60
2018-09-18T14:11:16.703Z,49.80
2018-09-18T14:13:45.328Z,49.80
2018-09-18T14:16:13.977Z,49.70
2018-09-18T14:18:42.619Z,49.60
2018-09-18T14:21:11.227Z,50.00
2018-09-18T14:23:39.933Z,50.20
2018-09-18T14:26:08.619Z,50.30
2018-09-18T14:28:37.381Z,48.70
2018-09-18T14:31:06.286Z,46.00
2018-09-18T14:33:35.019Z,43.70
2018-09-18T14:36:03.659Z,42.10
2018-09-18T14:38:32.298Z,41.70
2018-09-18T14:41:00.873Z,41.40
2018-09-18T14:43:29.840Z,41.30
2018-09-18T14:45:58.487Z,40.90
2018-09-18T14:48:27.150Z,39.70
2018-09-18T14:50:55.779Z,38.70
2018-09-18T14:53:24.447Z,37.40
2018-09-18T14:55:53.086Z,36.70
2018-09-18T14:58:21.826Z,36.20
2018-09-18T15:00:50.462Z,35.70
2018-09-18T15:03:19.072Z,35.50
2018-09-18T15:05:47.743Z,35.60
2018-09-18T15:08:16.386Z,35.00
2018-09-18T15:10:45.016Z,34.70
2018-09-18T15:13:13.669Z,34.40
2018-09-18T15:15:42.418Z,34.00
2018-09-18T15:18:11.041Z,33.70
2018-09-18T15:20:39.734Z,35.30
2018-09-18T15:23:08.379Z,34.80
2018-09-18T15:25:37.016Z,34.00
2018-09-18T15:28:05.778Z,33.30
2018-09-18T15:30:36.014Z,33.00
2018-09-18T15:33:04.640Z,32.60
2018-09-18T15:35:33.237Z,32.30
2018-09-18T15:38:01.887Z,32.10
2018-09-18T15:40:30.520Z,32.10
2018-09-18T15:42:59.198Z,32.00
2018-09-18T15:45:28.305Z,31.70
2018-09-18T15:47:56.992Z,31.50
2018-09-18T15:50:25.666Z,31.20
2018-09-18T15:52:54.336Z,31.00
2018-09-18T15:55:22.987Z,30.70
2018-09-18T15:57:51.645Z,30.70
2018-09-18T16:00:21.409Z,30.50
2018-09-18T16:02:50.022Z,30.50
2018-09-18T16:05:18.655Z,30.30
2018-09-18T16:07:47.330Z,30.20
2018-09-18T16:10:15.950Z,30.10
2018-09-18T16:12:44.573Z,30.00
2018-09-18T16:15:13.232Z,29.90
2018-09-18T16:17:42.538Z,29.80
2018-09-18T16:20:11.222Z,29.70
2018-09-18T16:22:39.918Z,29.60
2018-09-18T16:25:08.618Z,29.50
2018-09-18T16:27:37.239Z,29.30
2018-09-18T16:30:06.851Z,29.10
2018-09-18T16:32:35.512Z,29.00
2018-09-18T16:35:04.253Z,28.90
2018-09-18T16:37:32.958Z,28.70
2018-09-18T16:40:01.623Z,28.50
2018-09-18T16:42:30.227Z,28.40
2018-09-18T16:44:58.924Z,28.30
2018-09-18T16:47:27.548Z,28.10
2018-09-18T16:49:56.178Z,28.00
2018-09-18T16:52:24.861Z,27.90
2018-09-18T16:54:53.524Z,27.80
2018-09-18T16:57:22.378Z,27.60
2018-09-18T16:59:51.031Z,27.50
2018-09-18T17:02:19.707Z,27.30
2018-09-18T17:04:48.285Z,27.20
2018-09-18T17:07:16.999Z,27.10
2018-09-18T17:09:45.662Z,27.00
2018-09-18T17:12:14.326Z,26.80
2018-09-18T17:14:43.004Z,26.70
2018-09-18T17:17:11.650Z,26.60
2018-09-18T17:19:40.364Z,26.50
2018-09-18T17:22:09.046Z,26.30
2018-09-18T17:24:37.731Z,26.30
2018-09-18T17:27:06.319Z,26.10
2018-09-18T17:29:34.993Z,26.00
2018-09-18T17:32:03.648Z,25.90
2018-09-18T17:34:32.426Z,25.80
2018-09-18T17:37:01.051Z,25.70
2018-09-18T17:39:29.667Z,25.50
2018-09-18T17:41:58.290Z,25.40
2018-09-18T17:44:26.915Z,25.20
2018-09-18T17:46:55.630Z,25.10
2018-09-18T17:49:24.270Z,25.00
2018-09-18T17:51:53.341Z,25.00
2018-09-18T17:54:21.954Z,24.90
2018-09-18T17:56:50.613Z,24.80
2018-09-18T17:59:19.268Z,24.70
2018-09-18T18:01:47.908Z,24.70
2018-09-18T18:04:16.522Z,24.60
2018-09-18T18:06:45.167Z,24.50
2018-09-18T18:09:13.778Z,24.40
2018-09-18T18:11:42.566Z,24.30
2018-09-18T18:14:11.150Z,24.20
2018-09-18T18:16:39.828Z,24.10
2018-09-18T18:19:08.435Z,24.10
2018-09-18T18:21:37.089Z,24.00
2018-09-18T18:24:07.897Z,23.90
2018-09-18T18:26:36.553Z,23.80
2018-09-18T18:29:05.240Z,23.70
2018-09-18T18:31:33.883Z,23.60
2018-09-18T18:34:02.506Z,23.60
2018-09-18T18:36:31.205Z,23.40
2018-09-18T18:39:00.156Z,23.30
2018-09-18T18:41:28.809Z,23.20
2018-09-18T18:43:57.438Z,23.10
2018-09-18T18:46:26.081Z,23.10
2018-09-18T18:48:54.685Z,22.90
2018-09-18T18:51:23.320Z,22.80
2018-09-18T18:53:51.979Z,22.80
2018-09-18T18:56:20.627Z,22.70
2018-09-18T18:58:49.308Z,22.70
2018-09-18T19:01:18.007Z,22.60
2018-09-18T19:03:46.650Z,22.50
2018-09-18T19:06:15.308Z,22.50
2018-09-18T19:08:43.934Z,22.40
2018-09-18T19:11:12.596Z,22.30
2018-09-18T19:13:41.266Z,22.20
2018-09-18T19:16:09.969Z,22.20
2018-09-18T19:18:38.638Z,22.10
2018-09-18T19:21:07.232Z,22.00
2018-09-18T19:23:36.059Z,21.90
2018-09-18T19:26:04.684Z,21.80
2018-09-18T19:28:33.315Z,21.70
2018-09-18T19:31:01.970Z,21.70
2018-09-18T19:33:30.712Z,21.60
2018-09-18T19:35:59.312Z,21.50
2018-09-18T19:38:27.934Z,21.50
2018-09-18T19:40:56.572Z,21.50
2018-09-18T19:43:25.223Z,21.40
2018-09-18T19:45:53.890Z,21.30
2018-09-18T19:48:22.585Z,21.30
2018-09-18T19:50:52.222Z,21.20
2018-09-18T19:53:21.836Z,21.20
2018-09-18T19:55:50.507Z,21.10
2018-09-18T19:58:19.203Z,21.10
2018-09-18T20:00:47.943Z,21.00
2018-09-18T20:03:16.701Z,20.90
2018-09-18T20:05:45.376Z,20.90
2018-09-18T20:08:14.025Z,20.80
2018-09-18T20:10:42.629Z,20.80
2018-09-18T20:13:11.531Z,20.70
2018-09-18T20:15:40.208Z,20.70
2018-09-18T20:18:08.820Z,20.60
2018-09-18T20:20:37.478Z,20.60
2018-09-18T20:23:06.085Z,20.50
2018-09-18T20:25:34.669Z,20.50
2018-09-18T20:28:03.313Z,20.40
2018-09-18T20:30:31.924Z,20.40
2018-09-18T20:33:00.549Z,20.30
2018-09-18T20:35:29.206Z,20.30
2018-09-18T20:37:57.830Z,20.20
2018-09-18T20:40:26.460Z,20.20
2018-09-18T20:42:55.196Z,20.10
2018-09-18T20:45:24.882Z,20.00
2018-09-18T20:47:53.561Z,20.00
2018-09-18T20:50:23.818Z,20.00
2018-09-18T20:52:54.381Z,20.00
2018-09-18T20:55:23.046Z,19.90
2018-09-18T20:57:51.813Z,19.90
2018-09-18T21:00:20.562Z,19.80
2018-09-18T21:02:49.225Z,19.80
2018-09-18T21:05:17.844Z,19.70
2018-09-18T21:07:46.429Z,19.70
2018-09-18T21:10:15.046Z,19.60
2018-09-18T21:12:43.647Z,19.60
2018-09-18T21:15:12.245Z,19.60
2018-09-18T21:17:40.910Z,19.60
2018-09-18T21:20:09.535Z,19.50
2018-09-18T21:22:38.124Z,19.50
2018-09-18T21:25:15.455Z,19.50
2018-09-18T21:27:45.253Z,19.50
2018-09-18T21:30:14.640Z,19.40
2018-09-18T21:32:43.291Z,19.40
2018-09-18T21:35:11.948Z,19.40
2018-09-18T21:37:40.948Z,19.30
2018-09-18T21:40:09.688Z,19.30
2018-09-18T21:42:38.277Z,19.30
2018-09-18T21:45:06.930Z,19.20
2018-09-18T21:47:35.921Z,19.20
2018-09-18T21:50:04.584Z,19.20
2018-09-18T21:52:33.188Z,19.20
2018-09-18T21:55:01.849Z,19.10
2018-09-18T21:57:30.469Z,19.10
2018-09-18T21:59:59.103Z,19.10
2018-09-18T22:02:27.754Z,19.00
2018-09-18T22:04:56.341Z,19.00
2018-09-18T22:07:24.921Z,18.90
2018-09-18T22:09:53.570Z,18.90
2018-09-18T22:12:22.316Z,18.80
2018-09-18T22:14:50.868Z,18.80
2018-09-18T22:17:19.498Z,18.80
2018-09-18T22:19:48.111Z,18.70
2018-09-18T22:22:16.766Z,18.70
2018-09-18T22:24:45.356Z,18.70
2018-09-18T22:27:13.921Z,18.70
2018-09-18T22:29:42.522Z,18.60
2018-09-18T22:32:11.175Z,18.60
2018-09-18T22:34:39.744Z,18.60
2018-09-18T22:37:08.322Z,18.50
2018-09-18T22:39:36.980Z,18.50
2018-09-18T22:42:05.525Z,18.50
2018-09-18T22:44:34.075Z,18.50
2018-09-18T22:47:02.684Z,18.50
2018-09-18T22:49:31.280Z,18.50
2018-09-18T22:51:59.899Z,18.40
2018-09-18T22:54:28.548Z,18.40
2018-09-18T22:56:57.117Z,18.40
2018-09-18T22:59:25.696Z,18.30
2018-09-18T23:01:54.311Z,18.40
2018-09-18T23:04:22.897Z,18.30
2018-09-18T23:06:51.557Z,18.30
2018-09-18T23:09:20.186Z,18.30
2018-09-18T23:11:48.768Z,18.30
2018-09-18T23:14:17.343Z,18.20
2018-09-18T23:16:46.072Z,18.20
2018-09-18T23:19:14.645Z,18.20
2018-09-18T23:21:43.350Z,18.20
2018-09-18T23:24:11.927Z,18.10
2018-09-18T23:26:40.526Z,18.10
2018-09-18T23:29:09.142Z,18.10
2018-09-18T23:31:38.284Z,18.10
2018-09-18T23:34:06.977Z,18.10
2018-09-18T23:36:35.601Z,18.10
2018-09-18T23:39:05.629Z,18.00
2018-09-18T23:41:34.200Z,18.00
2018-09-18T23:44:02.785Z,18.00
2018-09-18T23:46:31.404Z,18.00
2018-09-18T23:48:59.992Z,17.90
2018-09-18T23:51:28.753Z,18.00
2018-09-18T23:53:57.406Z,17.90
2018-09-18T23:56:26.390Z,17.90
2018-09-18T23:58:55.174Z,17.90
